createdAt,value
2023-05-09T00:04:22.054Z,16.60
2023-05-09T00:09:23.849Z,17.13
2023-05-09T00:14:25.768Z,16.70
2023-05-09T00:19:27.718Z,16.10
2023-05-09T00:24:29.541Z,16.57
2023-05-09T00:29:31.432Z,10.68
2023-05-09T00:34:33.406Z,15.57
2023-05-09T00:39:35.252Z,11.60
2023-05-09T00:44:37.250Z,16.23
2023-05-09T00:49:39.098Z,15.97
2023-05-09T00:54:40.958Z,15.07
2023-05-09T00:59:42.794Z,14.73
2023-05-09T01:04:45.710Z,16.23
2023-05-09T01:09:59.468Z,14.95
2023-05-09T01:15:06.640Z,14.45
2023-05-09T01:20:40.635Z,16.33
2023-05-09T01:25:44.601Z,16.92
2023-05-09T01:30:46.927Z,16.13
2023-05-09T01:35:51.464Z,16.77
2023-05-09T01:40:54.555Z,14.98
2023-05-09T01:45:56.475Z,12.75
2023-05-09T01:50:58.365Z,15.13
2023-05-09T01:56:00.264Z,12.17
2023-05-09T02:01:02.200Z,12.67
2023-05-09T02:06:04.279Z,17.17
2023-05-09T02:11:06.098Z,16.83
2023-05-09T02:16:08.076Z,17.52
2023-05-09T02:21:10.138Z,15.87
2023-05-09T02:26:12.090Z,11.90
2023-05-09T02:31:14.279Z,16.23
2023-05-09T02:36:16.180Z,17.07
2023-05-09T02:41:18.069Z,16.17
2023-05-09T02:46:20.300Z,16.23
2023-05-09T02:51:22.227Z,15.53
2023-05-09T02:56:24.023Z,15.07
2023-05-09T03:01:25.958Z,15.13
2023-05-09T03:06:27.861Z,15.35
2023-05-09T03:11:29.772Z,14.00
2023-05-09T03:16:31.789Z,14.05
2023-05-09T03:21:33.754Z,14.50
2023-05-09T03:26:35.627Z,13.77
2023-05-09T03:31:37.657Z,13.68
2023-05-09T03:36:39.692Z,13.35
2023-05-09T03:46:43.202Z,12.13
2023-05-09T03:51:45.084Z,12.27
2023-05-09T03:56:46.946Z,11.15
2023-05-09T04:01:48.927Z,11.50
2023-05-09T04:06:50.773Z,10.80
2023-05-09T04:11:52.606Z,10.75
2023-05-09T04:16:54.560Z,10.98
2023-05-09T04:21:56.466Z,9.02
2023-05-09T04:26:58.368Z,6.90
2023-05-09T04:32:00.394Z,5.90
2023-05-09T04:37:02.321Z,4.25
2023-05-09T04:42:04.460Z,5.00
2023-05-09T04:47:06.330Z,4.70
2023-05-09T04:52:08.196Z,4.55
2023-05-09T04:57:17.958Z,4.45
2023-05-09T05:02:20.710Z,3.80
2023-05-09T05:07:22.672Z,3.88
2023-05-09T05:12:24.533Z,3.67
2023-05-09T05:17:26.535Z,2.90
2023-05-09T05:22:29.468Z,2.70
2023-05-09T05:27:32.226Z,29.00
2023-05-09T05:32:34.109Z,25.40
2023-05-09T05:37:36.039Z,9.85
2023-05-09T05:42:37.888Z,2.17
2023-05-09T05:47:39.773Z,7.47
2023-05-09T05:52:42.346Z,12.68
2023-05-09T05:57:44.228Z,1.70
2023-05-09T06:02:46.171Z,1.83
2023-05-09T06:07:48.179Z,1.60
2023-05-09T06:12:50.195Z,1.60
2023-05-09T06:17:52.039Z,1.80
2023-05-09T06:22:54.048Z,1.90
2023-05-09T06:27:55.863Z,1.98
2023-05-09T06:32:57.774Z,1.80
2023-05-09T06:37:59.685Z,1.95
2023-05-09T06:43:01.536Z,1.67
2023-05-09T06:48:03.564Z,1.55
2023-05-09T06:53:05.568Z,1.17
2023-05-09T06:58:07.426Z,1.60
2023-05-09T07:03:09.623Z,2.22
2023-05-09T07:08:11.548Z,1.70
2023-05-09T07:13:13.480Z,1.75
2023-05-09T07:18:15.467Z,1.30
2023-05-09T07:23:17.463Z,1.33
2023-05-09T07:28:19.333Z,1.90
2023-05-09T07:33:21.189Z,1.50
2023-05-09T07:38:23.035Z,1.42
2023-05-09T07:43:24.976Z,1.50
2023-05-09T07:48:26.943Z,1.60
2023-05-09T07:53:28.933Z,1.50
2023-05-09T07:58:30.840Z,1.50
2023-05-09T08:03:32.980Z,1.70
2023-05-09T08:08:35.543Z,1.60
2023-05-09T08:13:38.516Z,1.50
2023-05-09T08:23:42.059Z,1.90
2023-05-09T08:28:43.914Z,1.80
2023-05-09T08:33:45.789Z,1.60
2023-05-09T08:38:47.740Z,1.50
2023-05-09T08:43:49.756Z,1.42
2023-05-09T08:48:51.647Z,1.67
2023-05-09T08:53:53.589Z,1.67
2023-05-09T08:58:55.634Z,1.55
2023-05-09T09:03:57.600Z,1.52
2023-05-09T09:08:59.560Z,1.70
2023-05-09T09:14:02.555Z,1.50
2023-05-09T09:19:04.461Z,1.88
2023-05-09T09:24:06.467Z,1.95
2023-05-09T09:29:08.369Z,1.90
2023-05-09T09:34:10.237Z,1.60
2023-05-09T09:39:12.125Z,1.70
2023-05-09T09:44:18.308Z,1.75
2023-05-09T09:49:23.765Z,2.00
2023-05-09T09:54:28.563Z,1.70
2023-05-09T09:59:30.448Z,1.80
2023-05-09T10:04:35.580Z,1.60
2023-05-09T10:09:37.527Z,1.60
2023-05-09T10:14:39.387Z,1.50
2023-05-09T10:19:45.832Z,1.60
2023-05-09T10:24:51.151Z,1.67
2023-05-09T10:30:02.032Z,1.70
2023-05-09T10:35:08.271Z,1.70
2023-05-09T10:40:10.603Z,2.50
2023-05-09T10:45:12.940Z,2.17
2023-05-09T10:50:16.203Z,2.22
2023-05-09T10:55:18.120Z,2.10
2023-05-09T11:00:24.820Z,1.90
2023-05-09T11:05:26.746Z,2.08
2023-05-09T11:10:28.647Z,2.03
2023-05-09T11:15:30.536Z,2.03
2023-05-09T11:20:34.599Z,1.92
2023-05-09T11:25:36.637Z,2.50
2023-05-09T11:30:39.138Z,1.92
2023-05-09T11:35:41.610Z,1.73
2023-05-09T11:45:45.169Z,1.90
2023-05-09T11:50:47.586Z,1.98
2023-05-09T12:00:51.064Z,1.85
2023-05-09T12:05:54.514Z,2.63
2023-05-09T12:11:07.429Z,2.20
2023-05-09T12:16:09.402Z,1.92
2023-05-09T12:21:11.328Z,1.90
2023-05-09T12:26:13.237Z,2.15
2023-05-09T12:31:15.225Z,2.22
2023-05-09T12:36:17.290Z,2.53
2023-05-09T12:41:33.841Z,2.70
2023-05-09T12:46:37.730Z,2.17
2023-05-09T12:56:49.629Z,2.25
2023-05-09T13:01:56.119Z,2.30
2023-05-09T13:06:58.350Z,2.50
2023-05-09T13:12:00.144Z,2.08
2023-05-09T13:17:02.174Z,2.33
2023-05-09T13:22:04.134Z,2.30
2023-05-09T13:27:05.997Z,2.85
2023-05-09T13:32:07.882Z,2.22
2023-05-09T13:37:09.862Z,2.42
2023-05-09T13:42:11.741Z,2.30
2023-05-09T13:47:13.588Z,2.92
2023-05-09T13:52:15.925Z,2.25
2023-05-09T14:02:19.586Z,2.22
2023-05-09T14:07:21.450Z,2.17
2023-05-09T14:12:23.336Z,2.00
2023-05-09T14:17:25.254Z,2.28
2023-05-09T14:22:27.171Z,2.45
2023-05-09T14:27:29.037Z,2.17
2023-05-09T14:32:30.864Z,1.90
2023-05-09T14:37:33.157Z,1.98
2023-05-09T14:42:34.958Z,2.20
2023-05-09T14:47:36.847Z,2.03
2023-05-09T14:52:38.755Z,2.20
2023-05-09T14:57:40.634Z,2.30
2023-05-09T15:02:42.621Z,2.30
2023-05-09T15:07:44.475Z,2.10
2023-05-09T15:12:46.453Z,2.13
2023-05-09T15:17:48.258Z,2.20
2023-05-09T15:22:50.739Z,2.20
2023-05-09T15:27:52.595Z,2.20
2023-05-09T15:32:54.451Z,1.92
2023-05-09T15:37:56.355Z,2.15
2023-05-09T15:42:58.288Z,2.28
2023-05-09T15:48:00.260Z,2.20
2023-05-09T15:53:02.304Z,1.92
2023-05-09T15:58:04.219Z,2.60
2023-05-09T16:03:06.185Z,2.20
2023-05-09T16:08:08.089Z,2.42
2023-05-09T16:13:10.375Z,2.33
2023-05-09T16:18:12.297Z,2.40
2023-05-09T16:23:14.240Z,2.53
2023-05-09T16:28:16.167Z,2.70
2023-05-09T16:33:18.063Z,3.00
2023-05-09T16:38:19.983Z,2.90
2023-05-09T16:43:21.997Z,3.00
2023-05-09T16:48:23.984Z,3.25
2023-05-09T16:53:27.681Z,4.43
2023-05-09T16:58:29.879Z,3.88
2023-05-09T17:03:31.802Z,3.67
2023-05-09T17:08:33.717Z,3.87
2023-05-09T17:13:35.661Z,4.40
2023-05-09T17:18:38.390Z,4.73
2023-05-09T17:23:40.481Z,4.75
2023-05-09T17:28:42.346Z,5.90
2023-05-09T17:33:44.342Z,5.00
2023-05-09T17:38:46.159Z,5.23
2023-05-09T17:43:48.103Z,5.83
2023-05-09T17:48:49.921Z,6.30
2023-05-09T17:53:51.738Z,7.37
2023-05-09T17:58:53.768Z,6.33
2023-05-09T18:03:55.885Z,7.60
2023-05-09T18:08:57.820Z,6.97
2023-05-09T18:13:59.692Z,6.07
2023-05-09T18:19:01.697Z,5.60
2023-05-09T18:24:03.619Z,5.87
2023-05-09T18:29:05.496Z,5.63
2023-05-09T18:34:07.952Z,8.50
2023-05-09T18:39:10.080Z,7.60
2023-05-09T18:44:11.984Z,6.60
2023-05-09T18:49:13.890Z,6.67
2023-05-09T18:54:15.730Z,6.57
2023-05-09T18:59:17.600Z,7.73
2023-05-09T19:04:19.846Z,7.80
2023-05-09T19:09:21.985Z,8.10
2023-05-09T19:14:23.977Z,8.18
2023-05-09T19:19:25.925Z,8.93
2023-05-09T19:24:27.995Z,9.63
2023-05-09T19:29:30.110Z,8.25
2023-05-09T19:34:32.168Z,8.48
2023-05-09T19:39:34.060Z,8.30
2023-05-09T19:44:36.173Z,9.70
2023-05-09T19:49:38.161Z,9.17
2023-05-09T19:54:40.069Z,9.23
2023-05-09T19:59:42.001Z,9.50
2023-05-09T20:04:44.949Z,8.73
2023-05-09T20:09:46.931Z,7.35
2023-05-09T20:14:48.858Z,7.67
2023-05-09T20:19:50.785Z,6.57
2023-05-09T20:24:52.830Z,9.60
2023-05-09T20:29:54.781Z,8.40
2023-05-09T20:34:56.674Z,9.40
2023-05-09T20:39:58.574Z,10.00
2023-05-09T20:45:00.542Z,9.63
2023-05-09T20:50:02.512Z,8.30
2023-05-09T20:55:06.056Z,6.32
2023-05-09T21:00:08.543Z,8.90
2023-05-09T21:05:11.077Z,9.05
2023-05-09T21:10:13.446Z,10.33
2023-05-09T21:15:15.657Z,8.77
2023-05-09T21:20:17.969Z,9.47
2023-05-09T21:25:20.122Z,8.48
2023-05-09T21:30:22.004Z,8.90
2023-05-09T21:35:24.023Z,8.93
2023-05-09T21:40:26.061Z,7.72
2023-05-09T21:45:28.017Z,7.37
2023-05-09T21:50:29.943Z,7.10
2023-05-09T21:55:31.843Z,7.23
2023-05-09T22:00:33.788Z,8.10
2023-05-09T22:05:35.676Z,7.03
2023-05-09T22:10:37.644Z,7.27
2023-05-09T22:15:39.689Z,7.43
2023-05-09T22:20:41.686Z,8.07
2023-05-09T22:25:43.648Z,7.27
2023-05-09T22:30:45.537Z,6.90
2023-05-09T22:35:47.353Z,6.90
2023-05-09T22:40:49.280Z,7.07
2023-05-09T22:45:51.257Z,6.80
2023-05-09T22:50:53.111Z,6.67
2023-05-09T22:55:54.974Z,6.93
2023-05-09T23:00:56.997Z,6.23
2023-05-09T23:05:58.970Z,6.67
2023-05-09T23:11:00.919Z,7.57
2023-05-09T23:16:02.925Z,6.63
2023-05-09T23:21:05.062Z,7.47
2023-05-09T23:26:06.970Z,7.25
2023-05-09T23:31:10.191Z,7.77
2023-05-09T23:36:12.191Z,7.25
2023-05-09T23:41:14.075Z,5.90
2023-05-09T23:46:16.165Z,7.17
2023-05-09T23:51:18.210Z,4.93
2023-05-09T23:56:20.931Z,6.80
